Latest Weather Observations for Port Fairy

IDV60801

Issued at 10:02 am EDT Tuesday 3 March 2015 (issued every 30 minutes, with the page automatically refreshed every 10 minutes)

About weather observations | Map of weather stations | Latest weather observations for VIC | Other Formats
Station Details ID: 090175 Name: PORT FAIRY AWS Lat: -38.39 Lon: 142.23 Height: 10.0 m
Data from the previous 72 hours. | See also: Recent months at Port Fairy
Date/Time
EDT
Temp
°C
App
Temp
°C
Dew
Point
Rel
Hum
%
Delta-T
°C
Wind Press
QNH
hPa
Press
MSL
hPa
Rain
since 9 am
mm
Dir
 
Spd
km/h
Gust
km/h
Spd
kts
Gust
kts
03/10:00am 17.8 17.6 11.8 68 3.3 SW 4 7 2 4 1018.3 1018.3 0.0
03/09:30am 16.9 17.1 12.0 73 2.7 WSW 2 6 1 3 1018.2 1018.2 0.0
03/09:00am 14.8 15.0 11.9 83 1.6 NW 2 6 1 3 1018.0 1018.0 0.0
03/08:30am 13.6 12.9 11.5 87 1.1 NW 6 7 3 4 1017.8 1017.8 0.0
03/08:00am 11.9 10.8 10.8 93 0.6 NW 7 9 4 5 1017.7 1017.7 0.0
03/07:30am 11.1 10.4 9.9 92 0.6 NNW 4 6 2 3 1017.1 1017.1 0.0
03/07:00am 11.4 10.7 10.0 91 0.7 NNW 4 6 2 3 1016.8 1016.8 0.0
03/06:30am 12.1 11.5 10.3 89 0.9 NW 4 6 2 3 1016.6 1016.6 0.0
03/06:00am 12.7 12.2 10.8 88 1.0 NW 4 6 2 3 1016.3 1016.3 0.0
03/05:30am 12.6 12.8 10.5 87 1.1 CALM 0 0 0 0 1016.3 1016.3 0.0
03/05:00am 13.2 13.4 10.6 84 1.4 CALM 0 0 0 0 1016.2 1016.2 0.0
03/04:30am 14.1 13.6 10.7 80 1.8 SSE 4 4 2 2 1016.0 1016.0 0.0
03/04:00am 14.5 13.7 10.9 79 1.9 SSE 6 7 3 4 1016.1 1016.1 0.0
03/03:30am 15.0 14.1 10.8 76 2.2 SSE 6 7 3 4 1016.3 1016.3 0.0
03/03:00am 15.4 14.4 11.0 75 2.3 SSE 7 9 4 5 1016.5 1016.5 0.0
03/02:30am 15.6 14.7 11.4 76 2.3 S 7 13 4 7 1016.6 1016.6 0.0
03/02:00am 15.7 14.8 11.3 75 2.4 S 7 9 4 5 1016.8 1016.8 0.0
03/01:30am 15.9 14.6 11.3 74 2.5 S 9 11 5 6 1016.9 1016.9 0.0
03/01:00am 16.1 14.8 11.3 73 2.6 S 9 13 5 7 1016.9 1016.9 0.0
03/12:30am 16.2 14.2 11.4 73 2.6 SSE 13 19 7 10 1016.8 1016.8 0.0
03/12:00am 16.4 14.0 11.3 72 2.7 S 15 19 8 10 1016.9 1016.9 0.0
 
Date/Time
EDT
Temp
°C
App
Temp
°C
Dew
Point
Rel
Hum
%
Delta-T
°C
Wind Press
QNH
hPa
Press
MSL
hPa
Rain
since 9 am
mm
Dir
 
Spd
km/h
Gust
km/h
Spd
kts
Gust
kts
02/11:30pm 16.3 14.3 11.5 73 2.6 S 13 20 7 11 1017.1 1017.1 0.0
02/11:00pm 16.5 14.9 11.6 73 2.7 S 11 15 6 8 1016.7 1016.7 0.0
02/10:30pm 16.4 15.5 11.3 72 2.7 S 7 11 4 6 1016.7 1016.7 0.0
02/10:00pm 16.4 15.4 11.1 71 2.8 S 7 9 4 5 1016.5 1016.5 0.0
02/09:30pm 16.5 15.2 11.2 71 2.9 S 9 13 5 7 1016.3 1016.3 0.0
02/09:00pm 16.2 15.6 10.3 68 3.1 S 4 7 2 4 1016.1 1016.1 0.0
02/08:30pm 16.4 15.5 10.5 68 3.1 S 6 7 3 4 1015.8 1015.8 0.0
02/08:00pm 16.5 15.3 10.4 67 3.2 S 7 9 4 5 1015.6 1015.6 0.0
02/07:30pm 16.7 15.6 10.5 67 3.3 S 7 9 4 5 1015.4 1015.4 0.0
02/07:00pm 16.9 15.0 10.5 66 3.4 SSW 11 15 6 8 1015.5 1015.5 0.0
02/06:30pm 17.3 15.4 11.8 70 3.0 SSW 13 20 7 11 1015.3 1015.3 0.0
02/06:00pm 17.4 14.7 11.7 69 3.1 SSW 17 24 9 13 1015.1 1015.1 0.0
02/05:30pm 17.4 14.0 11.4 68 3.3 SSW 20 28 11 15 1014.7 1014.7 0.0
02/05:00pm 17.9 14.8 11.5 66 3.5 SSW 19 26 10 14 1014.5 1014.5 0.0
02/04:30pm 18.4 15.9 12.4 68 3.3 SSW 17 24 9 13 1014.4 1014.4 0.0
02/04:00pm 18.3 16.0 13.0 71 3.0 S 17 22 9 12 1014.4 1014.4 0.0
02/03:30pm 19.5 18.3 13.9 70 3.2 SSW 13 17 7 9 1014.6 1014.6 0.0
02/03:00pm 20.3 19.1 11.5 57 4.9 SW 9 13 5 7 1015.1 1015.1 0.0
02/02:30pm 20.7 19.5 12.9 61 4.4 SSE 11 13 6 7 1014.6 1014.6 0.0
02/02:00pm 22.6 20.6 7.2 37 8.0 E 7 11 4 6 1015.0 1015.0 0.0
02/01:30pm 22.1 20.5 8.6 42 7.1 ENE 7 9 4 5 1015.3 1015.3 0.0
02/01:00pm 20.2 17.8 7.2 43 6.6 N 9 17 5 9 1016.6 1016.6 0.0
02/12:30pm 20.4 17.9 8.1 45 6.4 NNE 11 19 6 10 1016.4 1016.4 0.0
02/12:00pm 18.8 16.0 8.7 52 5.2 NE 13 20 7 11 1016.8 1016.8 0.0
02/11:30am 17.9 15.2 10.5 62 4.0 NE 15 24 8 13 1017.3 1017.3 0.0
02/11:00am 16.4 14.0 10.0 66 3.4 ENE 13 20 7 11 1017.7 1017.7 0.0
02/10:30am 14.8 12.7 9.6 71 2.7 ENE 11 17 6 9 1017.7 1017.7 0.0
02/10:00am 13.9 12.0 8.9 72 2.5 NE 9 15 5 8 1017.9 1017.9 0.0
02/09:30am 12.7 11.4 9.2 79 1.8 NNE 6 9 3 5 1018.1 1018.1 0.0
02/09:00am 11.1 10.0 8.3 83 1.4 NNE 4 7 2 4 1018.6 1018.6 0.0
02/08:30am 9.4 7.6 7.3 87 1.0 NNE 6 7 3 4 1018.5 1018.5 0.0
02/08:00am 7.4 5.3 5.9 90 0.7 N 6 7 3 4 1018.5 1018.5 0.0
02/07:30am 7.1 4.8 5.7 91 0.6 N 7 7 4 4 1018.2 1018.2 0.0
02/07:00am 7.0 4.9 5.6 91 0.6 NNE 6 7 3 4 1018.0 1018.0 0.0
02/06:30am 7.1 4.8 5.9 92 0.5 N 7 9 4 5 1018.0 1018.0 0.0
02/06:00am 7.2 5.5 5.8 91 0.6 N 4 6 2 3 1017.6 1017.6 0.0
02/05:30am 7.3 5.2 5.8 90 0.7 NNE 6 7 3 4 1017.4 1017.4 0.0
02/05:00am 7.8 5.6 6.3 90 0.7 N 7 9 4 5 1017.6 1017.6 0.0
02/04:30am 7.9 5.9 6.2 89 0.8 N 6 9 3 5 1018.1 1018.1 0.0
02/04:00am 8.2 6.6 6.2 87 0.9 NNW 4 6 2 3 1018.0 1018.0 0.0
02/03:30am 9.0 7.1 6.6 85 1.1 N 6 7 3 4 1018.1 1018.1 0.0
02/03:00am 9.9 8.1 7.0 82 1.4 N 6 9 3 5 1018.4 1018.4 0.0
02/02:30am 10.7 8.8 6.6 76 1.9 N 6 9 3 5 1019.0 1019.0 0.0
02/02:00am 13.5 11.3 7.9 69 2.8 SSE 9 15 5 8 1019.2 1019.2 0.0
02/01:30am 12.7 10.5 8.0 73 2.3 SE 9 13 5 7 1019.2 1019.2 0.0
02/01:00am 12.6 10.2 7.1 69 2.6 SE 9 11 5 6 1019.3 1019.3 0.0
02/12:30am 13.2 10.6 7.6 69 2.7 SSE 11 13 6 7 1019.5 1019.5 0.0
02/12:00am 13.7 11.1 7.7 67 2.9 SSE 11 15 6 8 1019.5 1019.5 0.0
 
Date/Time
EDT
Temp
°C
App
Temp
°C
Dew
Point
Rel
Hum
%
Delta-T
°C
Wind Press
QNH
hPa
Press
MSL
hPa
Rain
since 9 am
mm
Dir
 
Spd
km/h
Gust
km/h
Spd
kts
Gust
kts
01/11:30pm 14.0 11.5 8.2 68 2.9 SSE 11 17 6 9 1019.7 1019.7 0.0
01/11:00pm 13.8 10.3 7.3 65 3.2 SSE 15 20 8 11 1019.6 1019.6 0.0
01/10:30pm 14.0 9.9 8.0 67 3.0 SSE 19 26 10 14 1019.6 1019.6 0.0
01/10:00pm 14.2 10.9 8.2 67 3.0 SE 15 22 8 12 1019.7 1019.7 0.0
01/09:30pm 14.1 11.0 8.7 70 2.7 SE 15 20 8 11 1019.2 1019.2 0.0
01/09:00pm 14.2 11.4 8.4 68 2.9 SE 13 19 7 10 1019.0 1019.0 0.0
01/08:30pm 14.6 11.5 8.8 68 2.9 SSE 15 20 8 11 1018.8 1018.8 0.0
01/08:00pm 15.2 11.4 8.9 66 3.2 SSE 19 22 10 12 1018.6 1018.6 0.0
01/07:30pm 15.5 11.7 9.0 65 3.3 SSE 19 24 10 13 1018.5 1018.5 0.0
01/07:00pm 15.8 11.8 9.0 64 3.5 SSE 20 26 11 14 1018.2 1018.2 0.0
01/06:30pm 16.1 12.3 9.8 66 3.3 SSE 20 28 11 15 1018.0 1018.0 0.0
01/06:00pm 17.1 13.5 9.8 62 3.8 SSE 19 28 10 15 1017.7 1017.7 0.0
01/05:30pm 17.3 13.9 10.4 64 3.7 S 19 24 10 13 1017.9 1017.9 0.0
01/05:00pm 17.4 13.5 10.8 65 3.5 SSE 22 28 12 15 1017.8 1017.8 0.0
01/04:30pm 17.8 14.0 11.1 65 3.6 S 22 30 12 16 1017.5 1017.5 0.0
01/04:00pm 18.1 14.6 11.0 63 3.8 S 20 26 11 14 1017.5 1017.5 0.0
01/03:30pm 18.2 14.8 11.3 64 3.8 S 20 28 11 15 1017.7 1017.7 0.0
01/03:00pm 18.3 14.2 11.6 65 3.7 S 24 32 13 17 1017.5 1017.5 0.0
01/02:30pm 18.2 14.8 12.4 69 3.2 S 22 28 12 15 1017.3 1017.3 0.0
01/02:00pm 17.9 13.9 11.9 68 3.3 S 24 32 13 17 1016.9 1016.9 0.0
01/01:30pm 16.9 13.5 12.6 76 2.4 S 22 32 12 17 1016.8 1016.8 0.0
01/01:00pm 17.4 15.0 12.7 74 2.6 S 17 24 9 13 1016.9 1016.9 0.0
01/12:30pm 17.8 15.1 12.9 73 2.7 S 19 26 10 14 1016.8 1016.8 0.0
01/12:00pm 16.9 13.6 12.8 77 2.3 S 22 30 12 16 1016.4 1016.4 0.0
01/11:30am 16.4 13.1 12.8 79 2.0 SSW 22 33 12 18 1015.9 1015.9 0.0
01/11:00am 18.2 16.3 12.9 71 3.0 SSW 15 20 8 11 1015.4 1015.4 0.0
01/10:30am 17.8 15.9 13.1 74 2.6 SSW 15 20 8 11 1015.1 1015.1 0.0
01/10:00am 17.4 15.0 12.7 74 2.6 S 17 24 9 13 1014.4 1014.4 0.0
01/09:30am 17.0 14.5 13.5 80 2.0 S 19 26 10 14 1013.8 1013.8 0.0
01/09:00am 16.3 13.9 13.8 85 1.4 S 19 28 10 15 1013.1 1013.1 5.8
01/08:30am 15.9 15.1 13.0 83 1.6 SSW 9 13 5 7 1012.5 1012.5 5.8
01/08:00am 15.1 13.9 12.8 86 1.3 SW 11 20 6 11 1011.9 1011.9 5.8
01/07:30am 15.0 14.6 12.9 87 1.2 WSW 7 11 4 6 1011.4 1011.4 5.4
01/07:00am 15.1 14.1 12.4 84 1.5 SSW 9 15 5 8 1010.8 1010.8 5.4
01/06:30am 14.5 12.8 12.5 88 1.1 SW 13 17 7 9 1010.2 1010.2 5.4
01/06:00am 14.6 10.3 12.1 85 1.4 SSW 26 37 14 20 1010.0 1010.0 5.2
01/05:30am 14.4 14.3 13.3 93 0.6 WNW 6 9 3 5 1009.4 1009.4 5.2
01/05:00am 14.8 13.4 13.5 92 0.7 W 13 19 7 10 1009.3 1009.3 5.2
01/04:30am 15.7 14.1 12.8 83 1.6 W 13 19 7 10 1008.7 1008.7 4.6
01/04:00am 16.1 14.1 12.7 80 1.9 SW 15 20 8 11 1008.5 1008.5 4.6
01/03:30am 16.3 14.6 12.3 77 2.2 SSW 13 19 7 10 1008.4 1008.4 4.6
01/03:00am 16.2 14.4 12.2 77 2.2 SSW 13 20 7 11 1008.3 1008.3 4.6
01/02:30am 16.6 14.3 12.9 79 2.1 SSW 17 22 9 12 1008.5 1008.5 4.6
01/02:00am 16.3 13.5 12.5 78 2.1 SSW 19 24 10 13 1008.4 1008.4 4.6
01/01:30am 16.3 14.0 13.0 81 1.8 SW 17 26 9 14 1008.2 1008.2 4.6
01/01:00am 16.7 13.5 13.0 79 2.1 SW 22 28 12 15 1008.2 1008.2 4.6
01/12:30am 16.8 13.0 12.5 76 2.4 SW 24 32 13 17 1008.0 1008.0 4.6
01/12:00am 16.9 13.0 13.2 79 2.1 SW 26 33 14 18 1008.0 1008.0 4.6
 
Date/Time
EDT
Temp
°C
App
Temp
°C
Dew
Point
Rel
Hum
%
Delta-T
°C
Wind Press
QNH
hPa
Press
MSL
hPa
Rain
since 9 am
mm
Dir
 
Spd
km/h
Gust
km/h
Spd
kts
Gust
kts
28/11:30pm 16.4 12.6 13.7 84 1.5 SW 26 35 14 19 1007.9 1007.9 4.6
28/11:00pm 16.6 13.5 13.3 81 1.9 SW 22 28 12 15 1007.8 1007.8 4.6
28/10:30pm 16.6 13.2 13.7 83 1.6 SW 24 30 13 16 1007.6 1007.6 4.6
28/10:00pm 16.8 13.3 14.6 87 1.3 SW 26 35 14 19 1007.3 1007.3 4.6
28/09:30pm 16.7 14.0 14.7 88 1.2 SW 22 30 12 16 1006.8 1006.8 4.6
28/09:00pm 16.9 13.0 15.4 91 0.9 SW 30 37 16 20 1006.2 1006.2 4.6
28/08:30pm 17.1 14.7 16.3 95 0.5 SW 24 32 13 17 1005.6 1005.6 4.6
28/08:00pm 17.6 17.2 17.1 97 0.3 WSW 15 20 8 11 1005.2 1005.2 4.6
28/07:30pm 17.8 17.1 17.3 97 0.3 WSW 17 24 9 13 1005.0 1005.0 4.6
28/07:00pm 17.9 17.6 17.4 97 0.3 WSW 15 19 8 10 1004.0 1004.0 4.6
28/06:30pm 18.1 16.5 17.5 96 0.4 WSW 22 32 12 17 1004.5 1004.5 3.8
28/06:09pm 18.5 18.0 17.7 95 0.5 WSW 17 35 9 19 1004.6 1004.6 1.6
28/06:00pm 18.5 18.6 17.5 94 0.6 SW 13 15 7 8 1002.3 1002.3 1.6
28/05:30pm 19.1 19.7 17.6 91 0.9 WSW 11 17 6 9 1002.1 1002.1 1.6
28/05:00pm 20.3 21.1 19.1 93 0.8 WSW 13 17 7 9 1002.1 1002.1 1.6
28/04:30pm 20.3 20.6 17.9 86 1.5 SW 13 17 7 9 1002.0 1002.0 0.2
28/04:00pm 21.1 21.0 16.9 77 2.6 SSW 13 17 7 9 1002.3 1002.3 0.0
28/03:30pm 20.9 19.1 16.9 78 2.4 SSW 22 30 12 16 1002.6 1002.6 0.0
28/03:00pm 21.3 18.8 17.1 77 2.6 SSW 26 35 14 19 1002.4 1002.4 0.0
28/02:30pm 21.8 22.3 17.4 76 2.7 SSW 11 15 6 8 1001.9 1001.9 0.0
28/02:00pm 21.3 21.5 16.7 75 2.8 SSW 11 17 6 9 1002.2 1002.2 0.0
28/01:30pm 21.4 22.3 16.6 74 2.9 S 7 11 4 6 1002.2 1002.2 0.0
28/01:00pm 23.2 24.3 16.5 66 4.1 S 6 13 3 7 1002.4 1002.4 0.0
28/12:30pm 25.8 26.8 16.9 58 5.5 NNE 7 13 4 7 1003.0 1003.0 0.0
28/12:00pm 24.1 25.4 17.1 65 4.3 N 6 11 3 6 1003.4 1003.4 0.0
28/11:30am 23.0 23.0 16.3 66 4.1 N 11 17 6 9 1003.7 1003.7 0.0
28/11:00am 22.1 21.0 16.4 70 3.5 N 17 22 9 12 1003.7 1003.7 0.0
28/10:30am 21.8 20.7 16.3 71 3.3 N 17 26 9 14 1003.8 1003.8 0.0

Other Formats:

Comma delimited format used in spreadsheet applications
http://www.bom.gov.au/fwo/IDV60801/IDV60801.94830.axf

JavaScript Object Notation format (JSON) in row-major order
http://www.bom.gov.au/fwo/IDV60801/IDV60801.94830.json